createdAt,value
2018-10-15T09:33:58.601Z,3476
2018-10-15T09:35:01.620Z,3340
2018-10-15T09:36:02.557Z,3348
2018-10-15T09:37:03.580Z,3824
2018-10-15T09:38:03.852Z,3928
2018-10-15T09:39:04.027Z,4720
2018-10-15T09:40:05.025Z,3904
2018-10-15T09:41:06.044Z,3460
2018-10-15T09:42:05.394Z,3756
2018-10-15T09:43:07.679Z,4928
2018-10-15T09:44:08.301Z,4492
2018-10-15T09:45:09.568Z,3400
2018-10-15T09:46:10.168Z,3444
2018-10-15T09:47:11.666Z,3508
2018-10-15T09:48:12.500Z,3608
2018-10-15T09:49:14.001Z,9516
2018-10-15T09:50:15.293Z,9544
2018-10-15T09:51:16.401Z,6236
2018-10-15T09:52:17.533Z,10088
2018-10-15T09:53:18.462Z,11292
2018-10-15T09:54:18.730Z,18976
2018-10-15T09:55:19.666Z,23456
2018-10-15T09:56:20.592Z,23040
2018-10-15T09:57:22.076Z,17536
2018-10-15T09:58:22.188Z,25824
2018-10-15T09:59:23.831Z,43840
2018-10-15T10:00:24.989Z,50976
2018-10-15T10:01:25.730Z,50816
2018-10-15T10:02:27.085Z,50592
2018-10-15T10:03:27.557Z,49120
2018-10-15T10:04:28.840Z,49248
2018-10-15T10:05:30.166Z,49280
2018-10-15T10:06:30.921Z,48832
2018-10-15T10:07:32.139Z,48320
2018-10-15T10:08:33.004Z,47584
2018-10-15T10:09:33.809Z,47584
2018-10-15T10:10:34.613Z,47392
2018-10-15T10:11:35.420Z,47328
2018-10-15T10:12:35.492Z,46976
2018-10-15T10:13:36.021Z,46016
2018-10-15T10:14:37.616Z,44992
2018-10-15T10:15:38.013Z,43712
2018-10-15T10:16:39.930Z,42880
2018-10-15T10:17:41.898Z,42368
2018-10-15T10:18:41.482Z,41760
2018-10-15T10:19:41.603Z,40256
2018-10-15T10:20:43.417Z,37824
2018-10-15T10:21:44.461Z,37152
2018-10-15T10:22:45.390Z,37664
2018-10-15T10:23:45.693Z,36640
2018-10-15T10:24:47.116Z,35296
2018-10-15T10:25:47.460Z,30880
2018-10-15T10:26:48.538Z,29376
2018-10-15T10:27:51.449Z,33120
2018-10-15T10:28:52.513Z,39808
2018-10-15T10:29:53.271Z,40992
2018-10-15T10:30:54.411Z,36160
2018-10-15T10:31:53.761Z,38272
2018-10-15T10:32:56.080Z,39232
2018-10-15T10:33:56.742Z,36416
2018-10-15T10:34:57.183Z,31744
2018-10-15T10:35:59.296Z,27616
2018-10-15T10:36:59.828Z,30272
2018-10-15T10:37:59.933Z,32576
2018-10-15T10:39:01.984Z,26464
2018-10-15T10:40:02.645Z,31136
2018-10-15T10:41:02.626Z,29184
2018-10-15T10:42:04.022Z,23904
2018-10-15T10:43:04.249Z,23712
2018-10-15T10:44:04.609Z,25536
2018-10-15T10:45:07.466Z,23296
2018-10-15T10:46:08.479Z,20512
2018-10-15T10:47:08.936Z,18432
2018-10-15T10:48:09.418Z,15648
2018-10-15T10:49:10.789Z,18304
2018-10-15T10:50:11.574Z,18944
2018-10-15T10:51:12.704Z,19968
2018-10-15T10:52:14.211Z,18528
2018-10-15T10:53:14.057Z,24160
2018-10-15T10:54:14.276Z,18880
2018-10-15T10:55:15.038Z,14880
2018-10-15T10:56:15.473Z,20352
2018-10-15T10:57:16.273Z,16128
2018-10-15T10:58:16.803Z,12212
2018-10-15T10:59:19.494Z,15584
2018-10-15T11:00:19.836Z,17568
2018-10-15T11:01:19.641Z,14880
2018-10-15T11:02:21.914Z,11052
2018-10-15T11:03:20.532Z,11684
2018-10-15T11:04:22.059Z,10224
2018-10-15T11:05:23.697Z,10916
2018-10-15T11:06:24.222Z,13200
2018-10-15T11:07:24.492Z,9268
2018-10-15T11:08:27.430Z,7288
2018-10-15T11:09:26.882Z,7428
2018-10-15T11:10:28.124Z,8660
2018-10-15T11:11:28.937Z,8136
2018-10-15T11:12:29.461Z,10228
2018-10-15T11:13:30.156Z,10396
2018-10-15T11:14:31.372Z,10740
2018-10-15T11:15:31.576Z,14048
2018-10-15T11:16:32.347Z,18816
2018-10-15T11:17:33.219Z,18144
2018-10-15T11:18:36.269Z,15744
2018-10-15T11:19:37.265Z,12644
2018-10-15T11:20:37.433Z,12104
2018-10-15T11:21:37.858Z,16640
2018-10-15T11:22:44.260Z,15200
2018-10-15T11:22:53.093Z,14272
2018-10-15T11:23:51.192Z,7784
2018-10-15T11:24:51.994Z,5164
2018-10-15T11:25:52.698Z,5940
2018-10-15T11:26:53.189Z,5580
2018-10-15T11:27:54.827Z,6040
2018-10-15T11:28:55.240Z,6292
2018-10-15T11:29:56.322Z,8252
2018-10-15T11:31:01.834Z,11652
2018-10-15T11:31:09.617Z,11688
2018-10-15T11:32:11.562Z,10248
2018-10-15T11:33:13.938Z,8312
2018-10-15T11:34:13.180Z,6860
2018-10-15T11:35:13.199Z,7236
2018-10-15T11:36:14.728Z,8292
2018-10-15T11:37:16.362Z,7652
2018-10-15T11:38:17.451Z,7248
2018-10-15T11:39:20.493Z,8352
2018-10-15T11:40:20.582Z,8836
2018-10-15T11:41:21.384Z,8244
2018-10-15T11:42:22.638Z,8072
2018-10-15T11:43:25.136Z,9008
2018-10-15T11:44:24.667Z,8996
2018-10-15T11:45:26.655Z,10292
2018-10-15T11:46:27.726Z,10036
2018-10-15T11:47:29.181Z,8244
2018-10-15T11:48:29.585Z,7516
2018-10-15T11:49:29.667Z,7496
2018-10-15T11:50:31.469Z,6816
2018-10-15T11:51:33.191Z,6416
2018-10-15T11:52:33.582Z,6528
2018-10-15T11:53:34.203Z,6340
2018-10-15T11:54:33.967Z,6504
2018-10-15T11:55:34.768Z,6844
2018-10-15T11:56:35.295Z,6564
2018-10-15T11:57:36.823Z,5772
2018-10-15T11:58:38.019Z,5560
2018-10-15T11:59:38.705Z,6000
2018-10-15T12:00:40.916Z,6552
2018-10-15T12:01:46.150Z,6996
2018-10-15T12:01:58.337Z,6976
2018-10-15T12:02:09.471Z,6796
2018-10-15T12:02:21.125Z,6900
2018-10-15T12:02:34.509Z,6956
2018-10-15T12:02:47.339Z,6816
2018-10-15T12:02:59.481Z,6652
2018-10-15T12:03:10.777Z,6568
2018-10-15T12:03:22.911Z,6504
2018-10-15T12:03:34.752Z,6412
2018-10-15T12:03:43.389Z,6364
2018-10-15T12:04:47.683Z,6264
2018-10-15T12:05:48.244Z,6428
2018-10-15T12:06:49.053Z,6152
2018-10-15T12:07:49.410Z,6072
2018-10-15T12:08:49.658Z,5724
2018-10-15T12:09:50.906Z,5528
2018-10-15T12:10:53.123Z,5964
2018-10-15T12:11:53.807Z,6360
2018-10-15T12:12:54.329Z,6360
2018-10-15T12:13:56.313Z,6144
2018-10-15T12:14:56.920Z,6052
2018-10-15T12:15:57.515Z,6472
2018-10-15T12:16:59.471Z,6868
2018-10-15T12:17:59.274Z,7028
2018-10-15T12:19:00.691Z,7172
2018-10-15T12:20:01.214Z,7160
2018-10-15T12:21:02.013Z,7048
2018-10-15T12:22:02.542Z,6956
2018-10-15T12:23:04.216Z,7024
2018-10-15T12:24:04.293Z,7200
2018-10-15T12:25:05.099Z,7276
2018-10-15T12:26:06.426Z,7288
2018-10-15T12:27:05.949Z,7312
2018-10-15T12:28:07.031Z,7340
2018-10-15T12:29:07.832Z,7392
2018-10-15T12:30:08.635Z,7436
2018-10-15T12:31:10.576Z,7492
2018-10-15T12:32:11.938Z,7468
2018-10-15T12:33:11.181Z,7464
2018-10-15T12:34:11.993Z,7416
2018-10-15T12:35:12.797Z,7224
2018-10-15T12:36:14.062Z,7236
2018-10-15T12:37:15.587Z,7528
2018-10-15T12:38:16.393Z,7616
2018-10-15T12:39:16.472Z,7520
2018-10-15T12:40:17.550Z,7456
2018-10-15T12:41:18.901Z,7416
2018-10-15T12:42:19.056Z,7620
2018-10-15T12:43:20.443Z,7656
2018-10-15T12:44:22.094Z,7752
2018-10-15T12:45:22.732Z,7864
2018-10-15T12:46:23.436Z,7880
2018-10-15T12:47:24.596Z,7884
2018-10-15T12:48:25.084Z,7908
2018-10-15T12:49:25.334Z,7900
2018-10-15T12:50:26.139Z,7888
2018-10-15T12:51:26.389Z,7904
2018-10-15T12:52:27.647Z,7944
2018-10-15T12:53:29.473Z,7936
2018-10-15T12:54:28.811Z,7912
2018-10-15T12:55:29.893Z,7932
2018-10-15T12:56:30.874Z,7924
2018-10-15T12:57:31.680Z,7892
2018-10-15T12:58:32.764Z,7960
2018-10-15T12:59:33.845Z,7976
2018-10-15T13:00:34.374Z,7988
2018-10-15T13:01:35.310Z,7996
2018-10-15T13:02:35.424Z,7976
2018-10-15T13:03:36.231Z,7872
2018-10-15T13:04:36.765Z,7748
2018-10-15T13:05:41.190Z,7708
2018-10-15T13:06:38.568Z,7828
2018-10-15T13:07:44.983Z,7812
2018-10-15T13:07:51.165Z,7836
2018-10-15T13:08:53.266Z,7728
2018-10-15T13:09:52.514Z,7720
2018-10-15T13:10:53.322Z,7804
2018-10-15T13:11:53.848Z,7916
2018-10-15T13:12:54.653Z,7908
2018-10-15T13:13:56.198Z,7868
2018-10-15T13:14:56.724Z,7800
2018-10-15T13:15:57.970Z,7760
2018-10-15T13:16:59.054Z,7716
2018-10-15T13:17:59.861Z,7724
2018-10-15T13:19:00.851Z,7652
2018-10-15T13:20:01.657Z,7596
2018-10-15T13:21:02.457Z,7560
2018-10-15T13:22:02.989Z,7352
2018-10-15T13:23:04.641Z,7376
2018-10-15T13:24:05.211Z,7544
2018-10-15T13:25:05.739Z,7584
2018-10-15T13:26:06.268Z,7608
2018-10-15T13:27:07.793Z,7616
2018-10-15T13:28:08.902Z,7648
2018-10-15T13:29:09.143Z,7684
2018-10-15T13:30:10.955Z,7720
2018-10-15T13:31:11.485Z,7244
2018-10-15T13:32:12.007Z,7700
2018-10-15T13:33:15.661Z,7684
2018-10-15T13:34:14.490Z,7636
2018-10-15T13:35:15.292Z,7800
2018-10-15T13:36:16.128Z,7732
2018-10-15T13:37:16.384Z,7716
2018-10-15T13:38:17.739Z,7808
2018-10-15T13:39:18.848Z,7768
2018-10-15T13:40:19.371Z,7780
2018-10-15T13:41:20.621Z,7688
2018-10-15T13:42:21.731Z,7704
2018-10-15T13:43:22.259Z,7740
2018-10-15T13:44:23.334Z,7788
2018-10-15T13:45:24.723Z,7600
2018-10-15T13:46:25.291Z,7696
2018-10-15T13:47:25.646Z,7128
2018-10-15T13:48:26.728Z,7700
2018-10-15T13:49:27.430Z,7720
2018-10-15T13:50:28.233Z,7684
2018-10-15T13:51:29.035Z,7632
2018-10-15T13:52:30.072Z,7620
2018-10-15T13:53:31.428Z,7672
2018-10-15T13:54:32.229Z,7640
2018-10-15T13:55:32.309Z,7616
2018-10-15T13:56:33.190Z,7600
2018-10-15T13:57:33.692Z,7580
2018-10-15T13:58:34.774Z,7632
2018-10-15T13:59:35.627Z,7308
2018-10-15T14:00:36.709Z,7584
2018-10-15T14:01:37.681Z,7548
2018-10-15T14:02:39.040Z,7164
2018-10-15T14:03:39.563Z,7492
2018-10-15T14:04:40.362Z,7504
2018-10-15T14:05:42.450Z,4020
2018-10-15T14:06:42.974Z,6524
2018-10-15T14:07:44.057Z,6508
2018-10-15T14:08:44.142Z,7520
2018-10-15T14:09:44.706Z,7540
2018-10-15T14:10:45.783Z,7600
2018-10-15T14:11:46.663Z,7632
2018-10-15T14:12:47.719Z,7616
2018-10-15T14:13:48.521Z,7608
2018-10-15T14:14:49.600Z,7584
2018-10-15T14:15:50.126Z,7504
2018-10-15T14:16:50.944Z,7444
2018-10-15T14:17:51.465Z,7400
2018-10-15T14:18:52.470Z,7324
2018-10-15T14:19:52.890Z,7360
2018-10-15T14:20:53.691Z,7324
2018-10-15T14:21:54.773Z,7260
2018-10-15T14:22:55.578Z,7288
2018-10-15T14:23:57.417Z,7380
2018-10-15T14:24:57.499Z,7652
2018-10-15T14:25:58.309Z,9160
2018-10-15T14:26:59.392Z,12096
2018-10-15T14:27:59.646Z,14144
2018-10-15T14:29:01.005Z,13212
2018-10-15T14:30:02.282Z,11420
2018-10-15T14:31:04.269Z,11052
2018-10-15T14:32:03.592Z,10496
2018-10-15T14:33:04.116Z,10212
2018-10-15T14:34:04.916Z,6052
2018-10-15T14:35:05.718Z,9216
2018-10-15T14:36:06.518Z,9624
2018-10-15T14:37:07.327Z,8448
2018-10-15T14:38:08.134Z,8492
2018-10-15T14:39:14.824Z,2712
2018-10-15T14:39:22.879Z,2812
2018-10-15T14:40:23.206Z,6000
2018-10-15T14:41:23.599Z,7772
2018-10-15T14:42:24.684Z,8616
2018-10-15T14:43:25.763Z,8696
2018-10-15T14:44:26.569Z,8648
2018-10-15T14:45:27.651Z,8472
2018-10-15T14:46:28.457Z,8456
2018-10-15T14:47:30.319Z,8276
2018-10-15T14:48:30.565Z,8244
2018-10-15T14:49:31.657Z,8244
2018-10-15T14:50:32.478Z,8120
2018-10-15T14:51:33.278Z,7728
2018-10-15T14:52:35.357Z,7176
2018-10-15T14:53:36.159Z,6468
2018-10-15T14:54:35.965Z,6144
2018-10-15T14:55:37.039Z,6028
2018-10-15T14:56:37.328Z,5836
2018-10-15T14:57:38.129Z,5784
2018-10-15T14:58:38.935Z,5272
2018-10-15T14:59:39.017Z,5108
2018-10-15T15:00:40.548Z,4892
2018-10-15T15:01:42.149Z,4860
2018-10-15T15:02:42.051Z,4400
2018-10-15T15:03:43.128Z,3952
2018-10-15T15:04:44.852Z,3688
2018-10-15T15:05:44.656Z,3456
2018-10-15T15:06:45.178Z,3332
2018-10-15T15:07:47.004Z,3180
2018-10-15T15:08:46.594Z,3156
2018-10-15T15:09:47.118Z,3112
2018-10-15T15:10:47.806Z,3188
2018-10-15T15:11:49.331Z,2968
2018-10-15T15:12:50.687Z,2920
2018-10-15T15:13:50.931Z,2880
2018-10-15T15:14:51.453Z,2856
2018-10-15T15:15:52.533Z,2768
2018-10-15T15:16:53.058Z,2724
2018-10-15T15:17:54.130Z,2676
2018-10-15T15:18:53.994Z,2640
2018-10-15T15:19:55.349Z,2580
2018-10-15T15:20:56.603Z,2524
2018-10-15T15:21:57.402Z,2424
2018-10-15T15:22:57.920Z,2336
2018-10-15T15:23:59.724Z,2244
2018-10-15T15:25:00.071Z,2160
2018-10-15T15:26:00.591Z,2088
2018-10-15T15:27:01.673Z,2024
2018-10-15T15:28:02.849Z,1972
2018-10-15T15:29:02.954Z,1972
2018-10-15T15:30:04.311Z,1952
2018-10-15T15:31:04.892Z,1876
2018-10-15T15:32:06.657Z,1804
2018-10-15T15:33:06.764Z,1740
2018-10-15T15:34:07.283Z,1688
2018-10-15T15:35:10.110Z,1628
2018-10-15T15:36:10.585Z,1536
2018-10-15T15:37:11.879Z,1480
2018-10-15T15:38:17.612Z,1380
2018-10-15T15:38:30.008Z,1360
2018-10-15T15:38:43.143Z,1356
2018-10-15T15:38:55.993Z,1344
2018-10-15T15:39:07.900Z,1324
2018-10-15T15:39:15.406Z,1320
2018-10-15T15:40:14.748Z,1304
2018-10-15T15:41:16.107Z,1208
2018-10-15T15:42:17.212Z,1152
2018-10-15T15:43:17.734Z,1104
2018-10-15T15:44:18.530Z,1040
2018-10-15T15:45:21.204Z,980
2018-10-15T15:46:21.131Z,932
2018-10-15T15:47:21.927Z,876
2018-10-15T15:48:24.001Z,836
2018-10-15T15:49:24.524Z,772
2018-10-15T15:50:26.044Z,704
2018-10-15T15:51:25.856Z,628
2018-10-15T15:52:27.211Z,568
2018-10-15T15:53:27.567Z,532
2018-10-15T15:54:28.366Z,512
2018-10-15T15:55:30.000Z,496
2018-10-15T15:56:30.796Z,476
2018-10-15T15:57:31.592Z,464
2018-10-15T15:58:32.384Z,456
2018-10-15T15:59:33.177Z,432
2018-10-15T16:00:33.989Z,408
2018-10-15T16:01:35.522Z,392
2018-10-15T16:02:35.910Z,376
2018-10-15T16:03:36.429Z,356
2018-10-15T16:04:37.504Z,340
2018-10-15T16:05:38.863Z,328
2018-10-15T16:06:39.934Z,312
2018-10-15T16:07:40.726Z,300
2018-10-15T16:08:41.800Z,284
2018-10-15T16:09:42.876Z,268
2018-10-15T16:10:45.443Z,256
2018-10-15T16:11:44.861Z,244
2018-10-15T16:12:45.931Z,232
2018-10-15T16:13:46.873Z,216
2018-10-15T16:14:48.510Z,208
2018-10-15T16:15:48.748Z,192
2018-10-15T16:16:50.542Z,180
2018-10-15T16:17:51.335Z,172
2018-10-15T16:18:52.704Z,160
2018-10-15T16:19:52.826Z,152
2018-10-15T16:20:53.354Z,140
2018-10-15T16:21:54.155Z,132
2018-10-15T16:22:55.596Z,120
2018-10-15T16:23:55.400Z,112
2018-10-15T16:24:55.911Z,104
2018-10-15T16:25:56.154Z,92
2018-10-15T16:26:56.666Z,84
2018-10-15T16:27:58.830Z,76
2018-10-15T16:29:00.457Z,68
2018-10-15T16:30:00.531Z,60
2018-10-15T16:31:01.222Z,56
2018-10-15T16:32:02.020Z,48
2018-10-15T16:33:03.537Z,44
2018-10-15T16:34:04.454Z,40
2018-10-15T16:35:04.983Z,36
2018-10-15T16:36:07.955Z,28
2018-10-15T16:37:06.419Z,28
2018-10-15T16:38:06.946Z,28
2018-10-15T16:39:08.293Z,20
2018-10-15T16:40:08.365Z,20
2018-10-15T16:41:09.911Z,16
2018-10-15T16:42:10.538Z,16
2018-10-15T16:43:11.328Z,16
2018-10-15T16:44:12.399Z,12
2018-10-15T16:45:12.917Z,12
2018-10-15T16:46:13.427Z,12
2018-10-15T16:47:14.582Z,8
2018-10-15T16:48:15.463Z,12
2018-10-15T16:49:16.391Z,8
2018-10-15T16:50:17.420Z,8
2018-10-15T16:51:17.906Z,8
2018-10-15T16:52:19.302Z,8
2018-10-15T16:53:21.183Z,8
2018-10-15T16:54:22.208Z,8
2018-10-15T16:55:22.381Z,8
2018-10-15T16:56:24.179Z,8
2018-10-15T16:57:25.520Z,8
2018-10-15T16:58:25.870Z,4
2018-10-15T16:59:26.661Z,4
2018-10-15T17:00:27.258Z,4
2018-10-15T17:01:28.590Z,4
2018-10-15T17:02:30.288Z,4
2018-10-15T17:03:30.193Z,4
2018-10-15T17:04:32.190Z,4
2018-10-15T17:05:33.074Z,8
2018-10-15T17:06:34.404Z,8
2018-10-15T17:07:35.470Z,8
2018-10-15T17:08:36.324Z,8
2018-10-15T17:09:37.551Z,8
2018-10-15T17:10:38.072Z,8
2018-10-15T17:11:38.812Z,8
2018-10-15T17:12:40.362Z,8
2018-10-15T17:13:42.409Z,8
2018-10-15T17:14:42.231Z,8
2018-10-15T17:15:43.253Z,8
2018-10-15T17:16:43.969Z,4
2018-10-15T17:17:45.295Z,8
2018-10-15T17:18:46.112Z,8
2018-10-15T17:19:47.227Z,8
2018-10-15T17:20:47.603Z,8
2018-10-15T17:21:49.741Z,8
2018-10-15T17:22:50.532Z,8
2018-10-15T17:23:50.940Z,8
2018-10-15T17:24:52.250Z,8
2018-10-15T17:25:53.411Z,8
2018-10-15T17:26:54.806Z,8
2018-10-15T17:27:55.636Z,8
2018-10-15T17:28:56.932Z,8
2018-10-15T17:29:58.136Z,8
2018-10-15T17:30:58.672Z,8
2018-10-15T17:31:59.729Z,8
2018-10-15T17:33:01.093Z,8
2018-10-15T17:34:02.916Z,8
2018-10-15T17:35:03.434Z,8
2018-10-15T17:36:05.120Z,8
2018-10-15T17:37:07.501Z,8
2018-10-15T17:38:07.085Z,8
2018-10-15T17:39:07.259Z,8
2018-10-15T17:40:08.393Z,8
2018-10-15T17:41:08.901Z,8
2018-10-15T17:42:09.531Z,8
2018-10-15T17:43:10.647Z,8
2018-10-15T17:44:10.590Z,8
2018-10-15T17:45:11.138Z,8
2018-10-15T17:46:11.540Z,8
2018-10-15T17:47:12.943Z,8
2018-10-15T17:48:13.325Z,8
2018-10-15T17:49:13.559Z,8
2018-10-15T17:50:14.637Z,8
2018-10-15T17:51:16.061Z,8
2018-10-15T17:52:17.300Z,8
2018-10-15T17:53:17.341Z,8
2018-10-15T17:54:17.961Z,8
2018-10-15T17:55:19.059Z,8
2018-10-15T17:56:19.289Z,8
2018-10-15T17:57:21.089Z,8
2018-10-15T17:58:21.661Z,8
2018-10-15T17:59:22.559Z,8
2018-10-15T18:00:23.836Z,8
2018-10-15T18:01:24.971Z,8
2018-10-15T18:02:25.224Z,8
2018-10-15T18:03:27.018Z,8
2018-10-15T18:04:27.203Z,8
2018-10-15T18:05:28.431Z,8
2018-10-15T18:06:29.464Z,8
2018-10-15T18:07:30.660Z,8
2018-10-15T18:08:31.459Z,8
2018-10-15T18:09:32.805Z,8
2018-10-15T18:10:33.640Z,8
2018-10-15T18:11:34.605Z,8
2018-10-15T18:12:35.941Z,8
2018-10-15T18:13:36.795Z,8
2018-10-15T18:14:38.178Z,8
2018-10-15T18:15:38.688Z,8
2018-10-15T18:16:39.975Z,8
2018-10-15T18:17:40.704Z,8
2018-10-15T18:18:41.474Z,8
2018-10-15T18:19:42.324Z,8
2018-10-15T18:20:42.837Z,8
2018-10-15T18:21:43.906Z,8
2018-10-15T18:22:44.510Z,8
2018-10-15T18:23:44.894Z,8
2018-10-15T18:24:46.061Z,8
2018-10-15T18:25:47.853Z,8
2018-10-15T18:26:47.930Z,8
2018-10-15T18:27:49.293Z,8
2018-10-15T18:28:49.625Z,4
2018-10-15T18:29:50.498Z,8
2018-10-15T18:30:51.315Z,8
2018-10-15T18:31:53.153Z,8
2018-10-15T18:32:53.753Z,8
2018-10-15T18:33:54.265Z,8
2018-10-15T18:34:55.779Z,8
2018-10-15T18:35:57.014Z,8
2018-10-15T18:36:57.781Z,8
2018-10-15T18:37:58.781Z,8
2018-10-15T18:38:59.541Z,8
2018-10-15T18:40:00.143Z,8
2018-10-15T18:41:00.978Z,8
2018-10-15T18:42:02.090Z,8
2018-10-15T18:43:02.612Z,8
2018-10-15T18:44:03.126Z,8
2018-10-15T18:45:04.197Z,8
2018-10-15T18:46:05.782Z,8
2018-10-15T18:47:05.651Z,8
2018-10-15T18:48:06.276Z,8
2018-10-15T18:49:07.012Z,8
2018-10-15T18:50:08.071Z,8
2018-10-15T18:51:08.819Z,8
2018-10-15T18:52:10.138Z,8
2018-10-15T18:53:09.663Z,8
2018-10-15T18:54:10.336Z,8
2018-10-15T18:55:10.885Z,8
2018-10-15T18:56:12.235Z,8
2018-10-15T18:57:12.863Z,8
2018-10-15T18:58:13.489Z,8
2018-10-15T18:59:13.275Z,8
2018-10-15T19:00:14.373Z,8
2018-10-15T19:01:15.627Z,8
2018-10-15T19:02:16.150Z,8
2018-10-15T19:03:18.224Z,4
2018-10-15T19:04:18.016Z,8
2018-10-15T19:05:18.803Z,8
2018-10-15T19:06:19.314Z,8
2018-10-15T19:07:21.335Z,8
2018-10-15T19:08:21.849Z,8
2018-10-15T19:09:23.196Z,8
2018-10-15T19:10:24.270Z,8
2018-10-15T19:11:24.612Z,8
2018-10-15T19:12:25.403Z,8
2018-10-15T19:13:26.200Z,8
2018-10-15T19:14:27.282Z,8
2018-10-15T19:15:27.353Z,8
2018-10-15T19:16:28.421Z,8
2018-10-15T19:17:28.932Z,8
2018-10-15T19:18:30.167Z,8
2018-10-15T19:19:33.132Z,8
2018-10-15T19:20:32.920Z,8
2018-10-15T19:21:34.266Z,8
2018-10-15T19:22:33.782Z,8
2018-10-15T19:23:34.860Z,8
2018-10-15T19:24:36.224Z,8
2018-10-15T19:25:37.548Z,8
2018-10-15T19:26:38.342Z,8
2018-10-15T19:27:39.417Z,8
2018-10-15T19:28:39.647Z,8
2018-10-15T19:29:41.275Z,8
2018-10-15T19:30:41.064Z,8
2018-10-15T19:31:42.130Z,0
2018-10-15T19:32:43.194Z,0
2018-10-15T19:33:45.385Z,0
2018-10-15T19:34:45.287Z,0
2018-10-15T19:35:46.080Z,0
2018-10-15T19:36:46.866Z,0
2018-10-15T19:37:47.932Z,0
2018-10-15T19:38:49.279Z,0
2018-10-15T19:39:49.515Z,0
2018-10-15T19:40:50.309Z,0
2018-10-15T19:41:51.384Z,0
2018-10-15T19:42:51.744Z,0
2018-10-15T19:43:53.264Z,0
2018-10-15T19:44:54.927Z,0
2018-10-15T19:45:54.719Z,0
2018-10-15T19:46:55.791Z,0
2018-10-15T19:47:56.857Z,0
2018-10-15T19:48:57.092Z,0
2018-10-15T19:49:58.723Z,0
2018-10-15T19:50:59.509Z,0
2018-10-15T19:52:00.016Z,0
2018-10-15T19:53:01.246Z,0
2018-10-15T19:54:03.316Z,0
2018-10-15T19:55:05.360Z,0
2018-10-15T19:56:05.285Z,0
2018-10-15T19:57:07.079Z,0
2018-10-15T19:58:09.108Z,0
2018-10-15T19:59:08.921Z,0
2018-10-15T20:00:09.713Z,0
2018-10-15T20:01:10.232Z,0
2018-10-15T20:02:11.740Z,0
2018-10-15T20:03:12.588Z,0
2018-10-15T20:04:14.248Z,0
2018-10-15T20:05:14.484Z,0
2018-10-15T20:06:15.550Z,0
2018-10-15T20:07:16.067Z,0
2018-10-15T20:08:16.582Z,0
2018-10-15T20:09:18.609Z,0
2018-10-15T20:10:19.785Z,0
2018-10-15T20:11:19.348Z,0
2018-10-15T20:12:20.135Z,0
2018-10-15T20:13:21.761Z,0
2018-10-15T20:14:22.752Z,0
2018-10-15T20:15:23.540Z,0
2018-10-15T20:16:24.885Z,0
2018-10-15T20:17:26.950Z,0
2018-10-15T20:18:26.201Z,0
2018-10-15T20:19:27.268Z,0
2018-10-15T20:20:28.609Z,0
2018-10-15T20:21:29.401Z,0
2018-10-15T20:22:30.464Z,0
2018-10-15T20:23:31.806Z,0
2018-10-15T20:24:32.068Z,0
2018-10-15T20:25:32.856Z,0
2018-10-15T20:26:33.643Z,0
2018-10-15T20:27:34.429Z,0
2018-10-15T20:28:37.123Z,0
2018-10-15T20:29:37.734Z,0
2018-10-15T20:30:38.086Z,0
2018-10-15T20:31:38.426Z,0
2018-10-15T20:32:39.766Z,0
2018-10-15T20:33:39.829Z,0
2018-10-15T20:34:41.350Z,0
2018-10-15T20:35:42.961Z,0
2018-10-15T20:36:42.747Z,0
2018-10-15T20:37:43.814Z,0
2018-10-15T20:38:43.878Z,0
2018-10-15T20:39:45.226Z,0
2018-10-15T20:40:45.459Z,0
2018-10-15T20:41:46.807Z,0
2018-10-15T20:42:48.105Z,0
2018-10-15T20:43:49.171Z,0
2018-10-15T20:44:50.131Z,0
2018-10-15T20:45:50.646Z,0
2018-10-15T20:46:51.437Z,0
2018-10-15T20:47:51.950Z,0
2018-10-15T20:48:52.740Z,0
2018-10-15T20:49:54.082Z,0
2018-10-15T20:50:55.425Z,0
2018-10-15T20:51:56.214Z,0
2018-10-15T20:52:56.727Z,0
2018-10-15T20:53:56.959Z,0
2018-10-15T20:54:57.926Z,0
2018-10-15T20:55:58.713Z,0
2018-10-15T20:57:00.344Z,0
2018-10-15T20:58:00.967Z,0
2018-10-15T20:59:00.755Z,0
2018-10-15T21:00:01.545Z,0
2018-10-15T21:01:02.061Z,0
2018-10-15T21:02:03.126Z,0
2018-10-15T21:03:03.470Z,0
2018-10-15T21:04:04.334Z,0
2018-10-15T21:05:05.425Z,0
2018-10-15T21:06:05.769Z,0
2018-10-15T21:07:06.555Z,0
2018-10-15T21:08:08.068Z,0
2018-10-15T21:09:09.135Z,0
2018-10-15T21:10:09.929Z,0
2018-10-15T21:11:10.717Z,0
2018-10-15T21:12:10.950Z,0
2018-10-15T21:13:12.460Z,0
2018-10-15T21:14:14.456Z,0
2018-10-15T21:15:14.210Z,0
2018-10-15T21:16:15.551Z,0
2018-10-15T21:17:15.896Z,0
2018-10-15T21:18:16.410Z,0
2018-10-15T21:19:17.198Z,0
2018-10-15T21:20:17.987Z,0
2018-10-15T21:21:18.499Z,0
2018-10-15T21:22:19.570Z,0
2018-10-15T21:23:21.229Z,0
2018-10-15T21:24:21.060Z,0
2018-10-15T21:25:21.743Z,0
2018-10-15T21:26:22.379Z,0
2018-10-15T21:27:22.444Z,0
2018-10-15T21:28:22.953Z,0
2018-10-15T21:29:24.024Z,0
2018-10-15T21:30:25.094Z,0
2018-10-15T21:31:26.159Z,0
2018-10-15T21:32:26.947Z,0
2018-10-15T21:33:29.014Z,0
2018-10-15T21:34:29.528Z,0
2018-10-15T21:35:30.786Z,0
2018-10-15T21:36:33.002Z,0
2018-10-15T21:37:33.572Z,0
2018-10-15T21:38:33.360Z,0
2018-10-15T21:39:35.150Z,0
2018-10-15T21:40:36.495Z,0
2018-10-15T21:41:37.293Z,0
2018-10-15T21:42:38.069Z,0
2018-10-15T21:43:38.859Z,0
2018-10-15T21:44:40.199Z,0
2018-10-15T21:45:41.198Z,0
2018-10-15T21:46:41.585Z,0
2018-10-15T21:47:42.931Z,0
2018-10-15T21:48:43.731Z,0
2018-10-15T21:49:44.241Z,0
2018-10-15T21:50:44.752Z,0
2018-10-15T21:51:46.831Z,0
2018-10-15T21:52:47.115Z,0
2018-10-15T21:53:49.181Z,0
2018-10-15T21:54:49.692Z,0
2018-10-15T21:55:51.004Z,0
2018-10-15T21:56:52.416Z,0
2018-10-15T21:57:52.971Z,0
2018-10-15T21:58:54.032Z,0
2018-10-15T21:59:54.544Z,0
2018-10-15T22:00:55.929Z,0
2018-10-15T22:01:56.401Z,0
2018-10-15T22:02:56.909Z,0
2018-10-15T22:03:58.524Z,0
2018-10-15T22:04:58.594Z,0
2018-10-15T22:06:01.114Z,0
2018-10-15T22:07:00.407Z,0
2018-10-15T22:08:01.541Z,0
2018-10-15T22:09:02.494Z,0
2018-10-15T22:10:03.574Z,0
2018-10-15T22:11:04.632Z,0
2018-10-15T22:12:05.707Z,0
2018-10-15T22:13:06.220Z,0
2018-10-15T22:14:07.286Z,0
2018-10-15T22:15:07.791Z,0
2018-10-15T22:16:09.316Z,0
2018-10-15T22:17:09.826Z,0
2018-10-15T22:18:10.619Z,0
2018-10-15T22:19:10.852Z,0
2018-10-15T22:20:12.195Z,0
2018-10-15T22:21:12.989Z,0
2018-10-15T22:22:13.329Z,0
2018-10-15T22:23:14.673Z,0
2018-10-15T22:24:16.020Z,0
2018-10-15T22:25:16.364Z,0
2018-10-15T22:26:17.441Z,0
2018-10-15T22:27:18.505Z,0
2018-10-15T22:28:19.331Z,0
2018-10-15T22:29:20.398Z,0
2018-10-15T22:30:20.914Z,0
2018-10-15T22:31:22.267Z,0
2018-10-15T22:32:23.058Z,0
2018-10-15T22:33:24.676Z,0
2018-10-15T22:34:24.748Z,0
2018-10-15T22:35:25.813Z,0
2018-10-15T22:36:26.215Z,0
2018-10-15T22:37:26.722Z,0
2018-10-15T22:38:27.232Z,0
2018-10-15T22:39:29.020Z,0
2018-10-15T22:40:29.812Z,0
2018-10-15T22:41:30.604Z,0
2018-10-15T22:42:31.945Z,0
2018-10-15T22:43:33.014Z,0
2018-10-15T22:44:33.658Z,0
2018-10-15T22:45:34.167Z,0
2018-10-15T22:46:35.128Z,0
2018-10-15T22:47:35.915Z,0
2018-10-15T22:48:36.977Z,0
2018-10-15T22:49:37.490Z,0
2018-10-15T22:50:37.996Z,0
2018-10-15T22:51:38.506Z,0
2018-10-15T22:52:39.854Z,0
2018-10-15T22:53:40.920Z,0
2018-10-15T22:54:40.708Z,0
2018-10-15T22:55:41.779Z,0
2018-10-15T22:56:42.020Z,0
2018-10-15T22:57:43.084Z,0
2018-10-15T22:58:44.712Z,0
2018-10-15T22:59:44.511Z,0
2018-10-15T23:00:46.308Z,0
2018-10-15T23:01:47.092Z,0
2018-10-15T23:02:48.158Z,0
2018-10-15T23:03:48.224Z,0
2018-10-15T23:04:48.737Z,0
2018-10-15T23:05:49.802Z,0
2018-10-15T23:06:50.043Z,0
2018-10-15T23:07:51.107Z,0
2018-10-15T23:08:51.892Z,0
2018-10-15T23:09:53.235Z,0
2018-10-15T23:10:54.577Z,0
2018-10-15T23:11:55.087Z,0
2018-10-15T23:12:55.875Z,0
2018-10-15T23:13:57.381Z,0
2018-10-15T23:14:58.446Z,0
2018-10-15T23:15:59.234Z,0
2018-10-15T23:16:59.752Z,0
2018-10-15T23:18:00.984Z,0
2018-10-15T23:19:02.049Z,0
2018-10-15T23:20:03.678Z,0
2018-10-15T23:21:03.744Z,0
2018-10-15T23:22:04.532Z,0
2018-10-15T23:23:05.595Z,0
2018-10-15T23:24:06.939Z,0
2018-10-15T23:25:07.723Z,0
2018-10-15T23:26:09.077Z,0
2018-10-15T23:27:10.312Z,0
2018-10-15T23:28:11.660Z,0